sensor_id;sensor_type;location;lat;lon;timestamp;P1;P2;P0
62631;PMS5003;48703;51.248;-0.546;2023-05-02T00:02:29;12.87;11.73;
62631;PMS5003;48703;51.248;-0.546;2023-05-02T00:05:30;11.60;9.77;
62631;PMS5003;48703;51.248;-0.546;2023-05-02T00:08:32;10.71;10.71;
62631;PMS5003;48703;51.248;-0.546;2023-05-02T00:11:33;12.24;10.81;
62631;PMS5003;48703;51.248;-0.546;2023-05-02T00:14:35;13.94;12.90;
62631;PMS5003;48703;51.248;-0.546;2023-05-02T00:17:38;9.37;9.16;
62631;PMS5003;48703;51.248;-0.546;2023-05-02T00:20:38;11.96;10.36;
62631;PMS5003;48703;51.248;-0.546;2023-05-02T00:23:40;11.59;9.69;
62631;PMS5003;48703;51.248;-0.546;2023-05-02T00:26:41;11.70;11.70;
62631;PMS5003;48703;51.248;-0.546;2023-05-02T00:29:43;11.41;10.73;
62631;PMS5003;48703;51.248;-0.546;2023-05-02T00:32:45;10.19;10.19;
62631;PMS5003;48703;51.248;-0.546;2023-05-02T00:35:47;10.03;9.71;
62631;PMS5003;48703;51.248;-0.546;2023-05-02T00:38:48;11.81;10.90;
62631;PMS5003;48703;51.248;-0.546;2023-05-02T00:41:55;10.11;9.90;
62631;PMS5003;48703;51.248;-0.546;2023-05-02T00:44:51;9.67;9.46;
62631;PMS5003;48703;51.248;-0.546;2023-05-02T00:47:53;11.26;10.01;
62631;PMS5003;48703;51.248;-0.546;2023-05-02T00:50:55;10.50;10.24;
62631;PMS5003;48703;51.248;-0.546;2023-05-02T00:53:56;11.26;10.74;
62631;PMS5003;48703;51.248;-0.546;2023-05-02T00:56:58;8.51;8.51;
62631;PMS5003;48703;51.248;-0.546;2023-05-02T01:00:00;13.27;11.81;
62631;PMS5003;48703;51.248;-0.546;2023-05-02T01:03:04;11.94;11.26;
62631;PMS5003;48703;51.248;-0.546;2023-05-02T01:06:05;11.58;11.54;
62631;PMS5003;48703;51.248;-0.546;2023-05-02T01:09:08;11.64;11.64;
62631;PMS5003;48703;51.248;-0.546;2023-05-02T01:12:07;11.56;10.81;
62631;PMS5003;48703;51.248;-0.546;2023-05-02T01:15:08;11.43;9.99;
62631;PMS5003;48703;51.248;-0.546;2023-05-02T01:18:08;9.61;9.61;
62631;PMS5003;48703;51.248;-0.546;2023-05-02T01:21:10;10.66;9.89;
62631;PMS5003;48703;51.248;-0.546;2023-05-02T01:24:13;9.60;9.17;
62631;PMS5003;48703;51.248;-0.546;2023-05-02T01:27:14;9.26;8.64;
62631;PMS5003;48703;51.248;-0.546;2023-05-02T01:30:15;10.60;10.09;
62631;PMS5003;48703;51.248;-0.546;2023-05-02T01:33:16;10.50;10.16;
62631;PMS5003;48703;51.248;-0.546;2023-05-02T01:36:18;10.24;9.81;
62631;PMS5003;48703;51.248;-0.546;2023-05-02T01:39:20;9.14;8.26;
62631;PMS5003;48703;51.248;-0.546;2023-05-02T01:42:21;9.20;8.73;
62631;PMS5003;48703;51.248;-0.546;2023-05-02T01:45:23;10.96;9.86;
62631;PMS5003;48703;51.248;-0.546;2023-05-02T01:48:25;11.13;10.23;
62631;PMS5003;48703;51.248;-0.546;2023-05-02T01:51:27;12.24;10.49;
62631;PMS5003;48703;51.248;-0.546;2023-05-02T01:54:28;11.03;9.86;
62631;PMS5003;48703;51.248;-0.546;2023-05-02T01:57:29;11.10;10.43;
62631;PMS5003;48703;51.248;-0.546;2023-05-02T02:00:31;10.31;9.56;
62631;PMS5003;48703;51.248;-0.546;2023-05-02T02:03:33;9.67;9.67;
62631;PMS5003;48703;51.248;-0.546;2023-05-02T02:06:34;10.51;9.03;
62631;PMS5003;48703;51.248;-0.546;2023-05-02T02:09:36;11.23;10.20;
62631;PMS5003;48703;51.248;-0.546;2023-05-02T02:12:38;11.54;9.70;
62631;PMS5003;48703;51.248;-0.546;2023-05-02T02:15:39;10.31;9.20;
62631;PMS5003;48703;51.248;-0.546;2023-05-02T02:18:41;11.03;10.49;
62631;PMS5003;48703;51.248;-0.546;2023-05-02T02:21:43;9.89;9.63;
62631;PMS5003;48703;51.248;-0.546;2023-05-02T02:24:45;9.61;9.10;
62631;PMS5003;48703;51.248;-0.546;2023-05-02T02:27:46;10.46;10.23;
62631;PMS5003;48703;51.248;-0.546;2023-05-02T02:30:48;9.87;9.87;
62631;PMS5003;48703;51.248;-0.546;2023-05-02T02:33:49;10.14;9.43;
62631;PMS5003;48703;51.248;-0.546;2023-05-02T02:36:52;10.94;9.91;
62631;PMS5003;48703;51.248;-0.546;2023-05-02T02:39:54;10.70;9.89;
62631;PMS5003;48703;51.248;-0.546;2023-05-02T02:42:59;11.17;10.79;
62631;PMS5003;48703;51.248;-0.546;2023-05-02T02:45:56;15.09;12.97;
62631;PMS5003;48703;51.248;-0.546;2023-05-02T02:49:00;14.59;12.94;
62631;PMS5003;48703;51.248;-0.546;2023-05-02T02:52:02;13.89;12.90;
62631;PMS5003;48703;51.248;-0.546;2023-05-02T02:55:04;14.94;12.57;
62631;PMS5003;48703;51.248;-0.546;2023-05-02T02:58:03;14.34;13.30;
62631;PMS5003;48703;51.248;-0.546;2023-05-02T03:01:04;15.36;14.23;
62631;PMS5003;48703;51.248;-0.546;2023-05-02T03:04:05;14.70;14.19;
62631;PMS5003;48703;51.248;-0.546;2023-05-02T03:07:06;13.99;12.75;
62631;PMS5003;48703;51.248;-0.546;2023-05-02T03:10:08;14.49;13.51;
62631;PMS5003;48703;51.248;-0.546;2023-05-02T03:13:09;14.64;12.77;
62631;PMS5003;48703;51.248;-0.546;2023-05-02T03:16:17;16.67;14.46;
62631;PMS5003;48703;51.248;-0.546;2023-05-02T03:19:12;14.40;14.11;
62631;PMS5003;48703;51.248;-0.546;2023-05-02T03:22:13;14.21;13.99;
62631;PMS5003;48703;51.248;-0.546;2023-05-02T03:25:15;15.11;14.17;
62631;PMS5003;48703;51.248;-0.546;2023-05-02T03:28:16;14.11;12.99;
62631;PMS5003;48703;51.248;-0.546;2023-05-02T03:31:18;14.33;13.20;
62631;PMS5003;48703;51.248;-0.546;2023-05-02T03:34:19;13.31;12.47;
62631;PMS5003;48703;51.248;-0.546;2023-05-02T03:37:21;13.34;13.04;
62631;PMS5003;48703;51.248;-0.546;2023-05-02T03:40:22;17.84;14.75;
62631;PMS5003;48703;51.248;-0.546;2023-05-02T03:43:24;13.91;12.76;
62631;PMS5003;48703;51.248;-0.546;2023-05-02T03:46:25;13.47;12.60;
62631;PMS5003;48703;51.248;-0.546;2023-05-02T03:49:27;13.93;13.30;
62631;PMS5003;48703;51.248;-0.546;2023-05-02T03:52:29;16.16;14.88;
62631;PMS5003;48703;51.248;-0.546;2023-05-02T03:55:31;14.70;12.24;
62631;PMS5003;48703;51.248;-0.546;2023-05-02T03:58:32;14.11;13.24;
62631;PMS5003;48703;51.248;-0.546;2023-05-02T04:01:34;13.79;12.14;
62631;PMS5003;48703;51.248;-0.546;2023-05-02T04:04:35;12.66;12.66;
62631;PMS5003;48703;51.248;-0.546;2023-05-02T04:07:37;13.29;12.14;
62631;PMS5003;48703;51.248;-0.546;2023-05-02T04:10:39;15.33;15.04;
62631;PMS5003;48703;51.248;-0.546;2023-05-02T04:13:40;17.19;14.64;
62631;PMS5003;48703;51.248;-0.546;2023-05-02T04:16:46;13.37;12.73;
62631;PMS5003;48703;51.248;-0.546;2023-05-02T04:19:44;13.67;12.23;
62631;PMS5003;48703;51.248;-0.546;2023-05-02T04:22:45;14.97;12.20;
62631;PMS5003;48703;51.248;-0.546;2023-05-02T04:25:50;16.51;14.89;
62631;PMS5003;48703;51.248;-0.546;2023-05-02T04:28:48;16.45;15.30;
62631;PMS5003;48703;51.248;-0.546;2023-05-02T04:31:50;16.11;14.96;
62631;PMS5003;48703;51.248;-0.546;2023-05-02T04:34:51;14.17;13.17;
62631;PMS5003;48703;51.248;-0.546;2023-05-02T04:37:52;18.69;15.63;
62631;PMS5003;48703;51.248;-0.546;2023-05-02T04:40:54;18.13;16.49;
62631;PMS5003;48703;51.248;-0.546;2023-05-02T04:43:55;17.41;16.16;
62631;PMS5003;48703;51.248;-0.546;2023-05-02T04:46:56;16.28;15.14;
62631;PMS5003;48703;51.248;-0.546;2023-05-02T04:49:58;16.27;14.33;
62631;PMS5003;48703;51.248;-0.546;2023-05-02T04:53:00;16.94;14.99;
62631;PMS5003;48703;51.248;-0.546;2023-05-02T04:56:01;17.48;16.43;
62631;PMS5003;48703;51.248;-0.546;2023-05-02T04:59:03;15.73;15.00;
62631;PMS5003;48703;51.248;-0.546;2023-05-02T05:02:04;20.33;18.64;
62631;PMS5003;48703;51.248;-0.546;2023-05-02T05:05:05;18.88;17.32;
62631;PMS5003;48703;51.248;-0.546;2023-05-02T05:08:07;16.80;16.25;
62631;PMS5003;48703;51.248;-0.546;2023-05-02T05:11:08;16.60;15.09;
62631;PMS5003;48703;51.248;-0.546;2023-05-02T05:14:10;17.89;16.61;
62631;PMS5003;48703;51.248;-0.546;2023-05-02T05:17:11;16.56;15.37;
62631;PMS5003;48703;51.248;-0.546;2023-05-02T05:20:13;17.89;16.24;
62631;PMS5003;48703;51.248;-0.546;2023-05-02T05:23:14;18.84;17.17;
62631;PMS5003;48703;51.248;-0.546;2023-05-02T05:26:16;16.19;13.46;
62631;PMS5003;48703;51.248;-0.546;2023-05-02T05:29:17;18.64;16.61;
62631;PMS5003;48703;51.248;-0.546;2023-05-02T05:32:18;18.13;16.97;
62631;PMS5003;48703;51.248;-0.546;2023-05-02T05:35:19;17.30;16.49;
62631;PMS5003;48703;51.248;-0.546;2023-05-02T05:38:21;16.83;15.79;
62631;PMS5003;48703;51.248;-0.546;2023-05-02T05:41:22;18.59;16.65;
62631;PMS5003;48703;51.248;-0.546;2023-05-02T05:44:23;18.74;17.36;
62631;PMS5003;48703;51.248;-0.546;2023-05-02T05:47:25;17.63;15.50;
62631;PMS5003;48703;51.248;-0.546;2023-05-02T05:50:26;15.76;15.31;
62631;PMS5003;48703;51.248;-0.546;2023-05-02T05:53:27;17.59;16.74;
62631;PMS5003;48703;51.248;-0.546;2023-05-02T05:56:29;17.96;16.99;
62631;PMS5003;48703;51.248;-0.546;2023-05-02T05:59:33;18.32;16.42;
62631;PMS5003;48703;51.248;-0.546;2023-05-02T06:02:32;16.60;15.66;
62631;PMS5003;48703;51.248;-0.546;2023-05-02T06:05:33;17.47;16.30;
62631;PMS5003;48703;51.248;-0.546;2023-05-02T06:08:35;21.16;19.35;
62631;PMS5003;48703;51.248;-0.546;2023-05-02T06:11:37;16.17;14.84;
62631;PMS5003;48703;51.248;-0.546;2023-05-02T06:14:38;17.71;16.39;
62631;PMS5003;48703;51.248;-0.546;2023-05-02T06:17:39;16.68;15.51;
62631;PMS5003;48703;51.248;-0.546;2023-05-02T06:20:41;19.99;17.39;
62631;PMS5003;48703;51.248;-0.546;2023-05-02T06:23:42;19.53;17.70;
62631;PMS5003;48703;51.248;-0.546;2023-05-02T06:26:44;15.94;14.83;
62631;PMS5003;48703;51.248;-0.546;2023-05-02T06:29:45;16.80;15.89;
62631;PMS5003;48703;51.248;-0.546;2023-05-02T06:32:47;17.70;14.79;
62631;PMS5003;48703;51.248;-0.546;2023-05-02T06:35:49;16.53;14.41;
62631;PMS5003;48703;51.248;-0.546;2023-05-02T06:38:49;15.07;14.43;
62631;PMS5003;48703;51.248;-0.546;2023-05-02T06:41:56;15.99;15.13;
62631;PMS5003;48703;51.248;-0.546;2023-05-02T06:44:52;17.23;15.03;
62631;PMS5003;48703;51.248;-0.546;2023-05-02T06:47:54;17.99;14.89;
62631;PMS5003;48703;51.248;-0.546;2023-05-02T06:50:56;16.61;15.27;
62631;PMS5003;48703;51.248;-0.546;2023-05-02T06:53:58;17.73;14.87;
62631;PMS5003;48703;51.248;-0.546;2023-05-02T06:57:00;17.04;15.41;
62631;PMS5003;48703;51.248;-0.546;2023-05-02T07:00:02;15.49;14.74;
62631;PMS5003;48703;51.248;-0.546;2023-05-02T07:03:03;18.12;15.87;
62631;PMS5003;48703;51.248;-0.546;2023-05-02T07:06:05;19.83;18.19;
62631;PMS5003;48703;51.248;-0.546;2023-05-02T07:09:06;17.04;16.03;
62631;PMS5003;48703;51.248;-0.546;2023-05-02T07:12:08;17.65;15.84;
62631;PMS5003;48703;51.248;-0.546;2023-05-02T07:15:09;19.20;16.23;
62631;PMS5003;48703;51.248;-0.546;2023-05-02T07:18:10;19.50;16.83;
62631;PMS5003;48703;51.248;-0.546;2023-05-02T07:21:11;18.87;17.71;
62631;PMS5003;48703;51.248;-0.546;2023-05-02T07:24:12;20.55;17.87;
62631;PMS5003;48703;51.248;-0.546;2023-05-02T07:27:14;20.13;17.61;
62631;PMS5003;48703;51.248;-0.546;2023-05-02T07:30:16;18.30;16.89;
62631;PMS5003;48703;51.248;-0.546;2023-05-02T07:33:17;17.46;16.50;
62631;PMS5003;48703;51.248;-0.546;2023-05-02T07:36:19;18.53;18.10;
62631;PMS5003;48703;51.248;-0.546;2023-05-02T07:39:20;19.66;18.13;
62631;PMS5003;48703;51.248;-0.546;2023-05-02T07:42:21;20.64;18.59;
62631;PMS5003;48703;51.248;-0.546;2023-05-02T07:45:22;18.37;17.44;
62631;PMS5003;48703;51.248;-0.546;2023-05-02T07:48:23;20.67;18.71;
62631;PMS5003;48703;51.248;-0.546;2023-05-02T07:51:24;18.96;17.10;
62631;PMS5003;48703;51.248;-0.546;2023-05-02T07:54:25;21.12;20.12;
62631;PMS5003;48703;51.248;-0.546;2023-05-02T07:57:27;20.04;17.76;
62631;PMS5003;48703;51.248;-0.546;2023-05-02T08:00:29;22.09;20.83;
62631;PMS5003;48703;51.248;-0.546;2023-05-02T08:03:31;20.20;18.64;
62631;PMS5003;48703;51.248;-0.546;2023-05-02T08:06:32;21.23;19.74;
62631;PMS5003;48703;51.248;-0.546;2023-05-02T08:09:34;22.07;18.87;
62631;PMS5003;48703;51.248;-0.546;2023-05-02T08:12:36;20.26;19.96;
62631;PMS5003;48703;51.248;-0.546;2023-05-02T08:15:36;21.29;20.76;
62631;PMS5003;48703;51.248;-0.546;2023-05-02T08:18:37;19.14;17.46;
62631;PMS5003;48703;51.248;-0.546;2023-05-02T08:21:39;21.94;19.66;
62631;PMS5003;48703;51.248;-0.546;2023-05-02T08:24:41;20.46;17.94;
62631;PMS5003;48703;51.248;-0.546;2023-05-02T08:27:42;22.65;19.22;
62631;PMS5003;48703;51.248;-0.546;2023-05-02T08:30:44;20.39;18.66;
62631;PMS5003;48703;51.248;-0.546;2023-05-02T08:33:44;19.04;18.33;
62631;PMS5003;48703;51.248;-0.546;2023-05-02T08:36:46;21.12;19.55;
62631;PMS5003;48703;51.248;-0.546;2023-05-02T08:39:47;17.63;17.36;
62631;PMS5003;48703;51.248;-0.546;2023-05-02T08:42:48;17.14;16.25;
62631;PMS5003;48703;51.248;-0.546;2023-05-02T08:45:49;18.93;17.36;
62631;PMS5003;48703;51.248;-0.546;2023-05-02T08:48:51;17.80;15.01;
62631;PMS5003;48703;51.248;-0.546;2023-05-02T08:51:53;17.31;14.29;
62631;PMS5003;48703;51.248;-0.546;2023-05-02T08:54:53;18.71;17.10;
62631;PMS5003;48703;51.248;-0.546;2023-05-02T08:57:56;16.33;14.04;
62631;PMS5003;48703;51.248;-0.546;2023-05-02T09:00:57;14.26;13.47;
62631;PMS5003;48703;51.248;-0.546;2023-05-02T09:03:58;18.28;16.25;
62631;PMS5003;48703;51.248;-0.546;2023-05-02T09:07:00;18.21;16.61;
62631;PMS5003;48703;51.248;-0.546;2023-05-02T09:10:00;16.57;15.30;
62631;PMS5003;48703;51.248;-0.546;2023-05-02T09:13:34;17.52;15.81;
62631;PMS5003;48703;51.248;-0.546;2023-05-02T09:16:04;17.56;16.83;
62631;PMS5003;48703;51.248;-0.546;2023-05-02T09:19:05;19.17;18.01;
62631;PMS5003;48703;51.248;-0.546;2023-05-02T09:22:07;18.31;16.36;
62631;PMS5003;48703;51.248;-0.546;2023-05-02T09:25:08;19.39;16.87;
62631;PMS5003;48703;51.248;-0.546;2023-05-02T09:28:10;18.93;18.40;
62631;PMS5003;48703;51.248;-0.546;2023-05-02T09:31:12;16.09;15.50;
62631;PMS5003;48703;51.248;-0.546;2023-05-02T09:34:14;18.41;17.03;
62631;PMS5003;48703;51.248;-0.546;2023-05-02T09:37:32;15.27;13.90;
62631;PMS5003;48703;51.248;-0.546;2023-05-02T09:40:16;16.57;15.41;
62631;PMS5003;48703;51.248;-0.546;2023-05-02T09:43:18;17.26;16.14;
62631;PMS5003;48703;51.248;-0.546;2023-05-02T09:46:19;15.71;14.46;
62631;PMS5003;48703;51.248;-0.546;2023-05-02T09:49:37;18.33;15.01;
62631;PMS5003;48703;51.248;-0.546;2023-05-02T09:52:23;18.91;16.78;
62631;PMS5003;48703;51.248;-0.546;2023-05-02T09:55:24;16.79;16.09;
62631;PMS5003;48703;51.248;-0.546;2023-05-02T09:58:25;18.58;17.23;
62631;PMS5003;48703;51.248;-0.546;2023-05-02T10:01:26;16.80;15.99;
62631;PMS5003;48703;51.248;-0.546;2023-05-02T10:04:29;16.90;15.40;
62631;PMS5003;48703;51.248;-0.546;2023-05-02T10:07:28;16.16;15.41;
62631;PMS5003;48703;51.248;-0.546;2023-05-02T10:10:30;16.20;15.46;
62631;PMS5003;48703;51.248;-0.546;2023-05-02T10:13:32;18.20;15.70;
62631;PMS5003;48703;51.248;-0.546;2023-05-02T10:16:32;17.59;16.46;
62631;PMS5003;48703;51.248;-0.546;2023-05-02T10:19:36;17.54;15.51;
62631;PMS5003;48703;51.248;-0.546;2023-05-02T10:22:36;17.00;15.24;
62631;PMS5003;48703;51.248;-0.546;2023-05-02T10:25:37;17.49;16.13;
62631;PMS5003;48703;51.248;-0.546;2023-05-02T10:28:39;17.29;16.35;
62631;PMS5003;48703;51.248;-0.546;2023-05-02T10:31:40;18.59;16.51;
62631;PMS5003;48703;51.248;-0.546;2023-05-02T10:34:42;19.78;17.29;
62631;PMS5003;48703;51.248;-0.546;2023-05-02T10:37:43;17.30;15.03;
62631;PMS5003;48703;51.248;-0.546;2023-05-02T10:40:53;16.34;14.36;
62631;PMS5003;48703;51.248;-0.546;2023-05-02T10:43:46;17.10;15.39;
62631;PMS5003;48703;51.248;-0.546;2023-05-02T10:46:47;16.29;13.91;
62631;PMS5003;48703;51.248;-0.546;2023-05-02T10:49:49;15.24;13.91;
62631;PMS5003;48703;51.248;-0.546;2023-05-02T10:52:50;14.23;12.59;
62631;PMS5003;48703;51.248;-0.546;2023-05-02T10:56:08;13.47;12.87;
62631;PMS5003;48703;51.248;-0.546;2023-05-02T10:58:53;17.23;15.43;
62631;PMS5003;48703;51.248;-0.546;2023-05-02T11:01:55;14.00;13.89;
62631;PMS5003;48703;51.248;-0.546;2023-05-02T11:04:57;13.27;12.94;
62631;PMS5003;48703;51.248;-0.546;2023-05-02T11:08:30;12.70;12.70;
62631;PMS5003;48703;51.248;-0.546;2023-05-02T11:11:28;13.84;12.09;
62631;PMS5003;48703;51.248;-0.546;2023-05-02T11:14:00;11.29;10.43;
62631;PMS5003;48703;51.248;-0.546;2023-05-02T11:17:05;13.01;12.33;
62631;PMS5003;48703;51.248;-0.546;2023-05-02T11:20:18;13.41;12.61;
62631;PMS5003;48703;51.248;-0.546;2023-05-02T11:23:36;11.61;10.67;
62631;PMS5003;48703;51.248;-0.546;2023-05-02T11:26:19;13.06;11.71;
62631;PMS5003;48703;51.248;-0.546;2023-05-02T11:29:07;11.96;11.41;
62631;PMS5003;48703;51.248;-0.546;2023-05-02T11:32:09;10.37;9.41;
62631;PMS5003;48703;51.248;-0.546;2023-05-02T11:35:12;12.54;11.13;
62631;PMS5003;48703;51.248;-0.546;2023-05-02T11:38:13;10.99;10.30;
62631;PMS5003;48703;51.248;-0.546;2023-05-02T11:41:13;10.63;10.63;
62631;PMS5003;48703;51.248;-0.546;2023-05-02T11:44:14;12.30;11.10;
62631;PMS5003;48703;51.248;-0.546;2023-05-02T11:47:16;12.60;12.30;
62631;PMS5003;48703;51.248;-0.546;2023-05-02T11:50:18;11.69;10.09;
62631;PMS5003;48703;51.248;-0.546;2023-05-02T11:53:20;11.26;10.41;
62631;PMS5003;48703;51.248;-0.546;2023-05-02T11:56:22;11.14;10.97;
62631;PMS5003;48703;51.248;-0.546;2023-05-02T11:59:22;12.54;10.11;
62631;PMS5003;48703;51.248;-0.546;2023-05-02T12:02:34;10.61;10.06;
62631;PMS5003;48703;51.248;-0.546;2023-05-02T12:05:26;11.33;9.44;
62631;PMS5003;48703;51.248;-0.546;2023-05-02T12:08:27;10.94;10.39;
62631;PMS5003;48703;51.248;-0.546;2023-05-02T12:11:29;10.04;8.99;
62631;PMS5003;48703;51.248;-0.546;2023-05-02T12:14:30;10.59;9.51;
62631;PMS5003;48703;51.248;-0.546;2023-05-02T12:17:32;11.13;10.73;
62631;PMS5003;48703;51.248;-0.546;2023-05-02T12:20:33;10.83;10.17;
62631;PMS5003;48703;51.248;-0.546;2023-05-02T12:23:35;10.66;9.97;
62631;PMS5003;48703;51.248;-0.546;2023-05-02T12:26:36;13.04;11.84;
62631;PMS5003;48703;51.248;-0.546;2023-05-02T12:29:38;10.27;10.19;
62631;PMS5003;48703;51.248;-0.546;2023-05-02T12:32:39;10.16;9.51;
62631;PMS5003;48703;51.248;-0.546;2023-05-02T12:35:41;9.77;9.59;
62631;PMS5003;48703;51.248;-0.546;2023-05-02T12:38:46;10.10;9.00;
62631;PMS5003;48703;51.248;-0.546;2023-05-02T12:41:44;10.84;9.34;
62631;PMS5003;48703;51.248;-0.546;2023-05-02T12:44:46;9.70;9.43;
62631;PMS5003;48703;51.248;-0.546;2023-05-02T12:47:47;10.06;10.06;
62631;PMS5003;48703;51.248;-0.546;2023-05-02T12:50:48;11.45;9.81;
62631;PMS5003;48703;51.248;-0.546;2023-05-02T12:53:50;10.87;9.71;
62631;PMS5003;48703;51.248;-0.546;2023-05-02T12:56:51;10.13;9.44;
62631;PMS5003;48703;51.248;-0.546;2023-05-02T12:59:53;8.43;8.43;
62631;PMS5003;48703;51.248;-0.546;2023-05-02T13:02:54;10.60;9.66;
62631;PMS5003;48703;51.248;-0.546;2023-05-02T13:05:55;10.43;9.77;
62631;PMS5003;48703;51.248;-0.546;2023-05-02T13:08:57;8.84;8.50;
62631;PMS5003;48703;51.248;-0.546;2023-05-02T13:11:59;9.96;9.19;
62631;PMS5003;48703;51.248;-0.546;2023-05-02T13:15:00;10.49;9.83;
62631;PMS5003;48703;51.248;-0.546;2023-05-02T13:18:01;11.29;10.63;
62631;PMS5003;48703;51.248;-0.546;2023-05-02T13:21:03;10.03;9.34;
62631;PMS5003;48703;51.248;-0.546;2023-05-02T13:24:05;8.37;8.30;
62631;PMS5003;48703;51.248;-0.546;2023-05-02T13:27:06;10.16;9.36;
62631;PMS5003;48703;51.248;-0.546;2023-05-02T13:30:08;9.33;9.30;
62631;PMS5003;48703;51.248;-0.546;2023-05-02T13:33:09;9.50;9.20;
62631;PMS5003;48703;51.248;-0.546;2023-05-02T13:36:11;9.10;8.67;
62631;PMS5003;48703;51.248;-0.546;2023-05-02T13:39:12;9.90;8.36;
62631;PMS5003;48703;51.248;-0.546;2023-05-02T13:42:14;9.30;9.24;
62631;PMS5003;48703;51.248;-0.546;2023-05-02T13:45:15;8.63;8.20;
62631;PMS5003;48703;51.248;-0.546;2023-05-02T13:48:17;9.84;9.06;
62631;PMS5003;48703;51.248;-0.546;2023-05-02T13:51:18;8.44;8.44;
62631;PMS5003;48703;51.248;-0.546;2023-05-02T13:54:19;9.74;9.35;
62631;PMS5003;48703;51.248;-0.546;2023-05-02T13:57:21;10.03;9.30;
62631;PMS5003;48703;51.248;-0.546;2023-05-02T14:00:23;10.90;10.19;
62631;PMS5003;48703;51.248;-0.546;2023-05-02T14:03:24;8.79;8.69;
62631;PMS5003;48703;51.248;-0.546;2023-05-02T14:06:26;8.83;8.19;
62631;PMS5003;48703;51.248;-0.546;2023-05-02T14:09:27;10.33;9.86;
62631;PMS5003;48703;51.248;-0.546;2023-05-02T14:12:29;6.90;6.60;
62631;PMS5003;48703;51.248;-0.546;2023-05-02T14:15:30;9.61;8.93;
62631;PMS5003;48703;51.248;-0.546;2023-05-02T14:18:32;9.46;8.94;
62631;PMS5003;48703;51.248;-0.546;2023-05-02T14:21:34;10.47;9.70;
62631;PMS5003;48703;51.248;-0.546;2023-05-02T14:24:35;8.56;8.16;
62631;PMS5003;48703;51.248;-0.546;2023-05-02T14:27:37;10.13;9.14;
62631;PMS5003;48703;51.248;-0.546;2023-05-02T14:30:38;10.57;9.29;
62631;PMS5003;48703;51.248;-0.546;2023-05-02T14:33:39;10.77;9.74;
62631;PMS5003;48703;51.248;-0.546;2023-05-02T14:36:40;10.79;10.04;
62631;PMS5003;48703;51.248;-0.546;2023-05-02T14:39:42;9.60;8.53;
62631;PMS5003;48703;51.248;-0.546;2023-05-02T14:42:43;8.56;8.09;
62631;PMS5003;48703;51.248;-0.546;2023-05-02T14:45:45;9.77;8.49;
62631;PMS5003;48703;51.248;-0.546;2023-05-02T14:48:47;9.39;8.99;
62631;PMS5003;48703;51.248;-0.546;2023-05-02T14:51:48;10.33;7.99;
62631;PMS5003;48703;51.248;-0.546;2023-05-02T14:54:49;9.56;8.51;
62631;PMS5003;48703;51.248;-0.546;2023-05-02T14:57:51;8.67;8.67;
62631;PMS5003;48703;51.248;-0.546;2023-05-02T15:00:52;8.17;7.64;
62631;PMS5003;48703;51.248;-0.546;2023-05-02T15:03:54;9.59;9.20;
62631;PMS5003;48703;51.248;-0.546;2023-05-02T15:06:55;9.47;8.49;
62631;PMS5003;48703;51.248;-0.546;2023-05-02T15:09:57;8.33;8.03;
62631;PMS5003;48703;51.248;-0.546;2023-05-02T15:12:59;8.26;7.44;
62631;PMS5003;48703;51.248;-0.546;2023-05-02T15:16:00;7.93;7.93;
62631;PMS5003;48703;51.248;-0.546;2023-05-02T15:19:02;9.66;8.77;
62631;PMS5003;48703;51.248;-0.546;2023-05-02T15:22:03;8.84;8.10;
62631;PMS5003;48703;51.248;-0.546;2023-05-02T15:25:05;9.40;9.34;
62631;PMS5003;48703;51.248;-0.546;2023-05-02T15:28:06;10.46;9.07;
62631;PMS5003;48703;51.248;-0.546;2023-05-02T15:31:08;10.71;8.77;
62631;PMS5003;48703;51.248;-0.546;2023-05-02T15:34:09;9.80;8.57;
62631;PMS5003;48703;51.248;-0.546;2023-05-02T15:37:10;8.84;8.84;
62631;PMS5003;48703;51.248;-0.546;2023-05-02T15:40:12;8.89;8.24;
62631;PMS5003;48703;51.248;-0.546;2023-05-02T15:43:13;8.50;8.41;
62631;PMS5003;48703;51.248;-0.546;2023-05-02T15:46:15;9.00;8.20;
62631;PMS5003;48703;51.248;-0.546;2023-05-02T15:49:17;7.79;7.50;
62631;PMS5003;48703;51.248;-0.546;2023-05-02T15:52:18;9.51;8.39;
62631;PMS5003;48703;51.248;-0.546;2023-05-02T15:55:20;7.17;7.17;
62631;PMS5003;48703;51.248;-0.546;2023-05-02T15:58:21;7.53;7.03;
62631;PMS5003;48703;51.248;-0.546;2023-05-02T16:01:23;7.87;7.59;
62631;PMS5003;48703;51.248;-0.546;2023-05-02T16:04:24;7.13;6.66;
62631;PMS5003;48703;51.248;-0.546;2023-05-02T16:07:25;9.57;8.74;
62631;PMS5003;48703;51.248;-0.546;2023-05-02T16:10:27;8.44;7.64;
62631;PMS5003;48703;51.248;-0.546;2023-05-02T16:13:29;8.37;7.67;
62631;PMS5003;48703;51.248;-0.546;2023-05-02T16:16:30;8.44;7.71;
62631;PMS5003;48703;51.248;-0.546;2023-05-02T16:19:32;7.24;7.03;
62631;PMS5003;48703;51.248;-0.546;2023-05-02T16:22:33;7.84;7.13;
62631;PMS5003;48703;51.248;-0.546;2023-05-02T16:25:35;8.39;7.54;
62631;PMS5003;48703;51.248;-0.546;2023-05-02T16:28:36;7.04;6.77;
62631;PMS5003;48703;51.248;-0.546;2023-05-02T16:31:38;7.23;6.47;
62631;PMS5003;48703;51.248;-0.546;2023-05-02T16:34:39;8.36;6.60;
62631;PMS5003;48703;51.248;-0.546;2023-05-02T16:37:41;8.11;7.51;
62631;PMS5003;48703;51.248;-0.546;2023-05-02T16:40:42;7.06;7.06;
62631;PMS5003;48703;51.248;-0.546;2023-05-02T16:43:44;9.04;7.86;
62631;PMS5003;48703;51.248;-0.546;2023-05-02T16:46:45;8.66;7.37;
62631;PMS5003;48703;51.248;-0.546;2023-05-02T16:49:51;7.34;6.83;
62631;PMS5003;48703;51.248;-0.546;2023-05-02T16:52:48;9.17;8.60;
62631;PMS5003;48703;51.248;-0.546;2023-05-02T16:55:49;7.90;7.47;
62631;PMS5003;48703;51.248;-0.546;2023-05-02T16:58:51;8.60;7.86;
62631;PMS5003;48703;51.248;-0.546;2023-05-02T17:01:52;9.23;6.44;
62631;PMS5003;48703;51.248;-0.546;2023-05-02T17:04:54;8.74;8.20;
62631;PMS5003;48703;51.248;-0.546;2023-05-02T17:07:55;9.03;8.37;
62631;PMS5003;48703;51.248;-0.546;2023-05-02T17:10:57;11.17;9.38;
62631;PMS5003;48703;51.248;-0.546;2023-05-02T17:13:58;8.61;7.24;
62631;PMS5003;48703;51.248;-0.546;2023-05-02T17:17:00;7.64;7.31;
62631;PMS5003;48703;51.248;-0.546;2023-05-02T17:20:01;9.06;8.47;
62631;PMS5003;48703;51.248;-0.546;2023-05-02T17:23:02;9.46;8.86;
62631;PMS5003;48703;51.248;-0.546;2023-05-02T17:26:04;8.73;8.07;
62631;PMS5003;48703;51.248;-0.546;2023-05-02T17:29:05;6.97;6.67;
62631;PMS5003;48703;51.248;-0.546;2023-05-02T17:32:07;10.10;8.76;
62631;PMS5003;48703;51.248;-0.546;2023-05-02T17:35:08;6.67;6.67;
62631;PMS5003;48703;51.248;-0.546;2023-05-02T17:38:10;6.84;6.60;
62631;PMS5003;48703;51.248;-0.546;2023-05-02T17:41:11;9.51;8.16;
62631;PMS5003;48703;51.248;-0.546;2023-05-02T17:44:13;7.46;7.16;
62631;PMS5003;48703;51.248;-0.546;2023-05-02T17:47:14;8.47;7.30;
62631;PMS5003;48703;51.248;-0.546;2023-05-02T17:50:16;7.39;6.87;
62631;PMS5003;48703;51.248;-0.546;2023-05-02T17:53:17;7.31;6.89;
62631;PMS5003;48703;51.248;-0.546;2023-05-02T17:56:19;9.76;7.71;
62631;PMS5003;48703;51.248;-0.546;2023-05-02T17:59:20;7.34;6.76;
62631;PMS5003;48703;51.248;-0.546;2023-05-02T18:02:22;8.76;7.84;
62631;PMS5003;48703;51.248;-0.546;2023-05-02T18:05:23;8.30;7.06;
62631;PMS5003;48703;51.248;-0.546;2023-05-02T18:08:25;8.70;7.83;